This is the latest recevied weather packets stored in our database for station/object EA3IK-7. If no packets are shown the sender has not sent any weather packets the latest 10 day(s).
| Time | Temp. | Humidity | Pressure | Rain* | Wind** | Luminosity | Snow |
|---|---|---|---|---|---|---|---|
| 1777468803 | 25.56° C | 53% | 1009.3 hPa | - | - | - | - |
| 1777468795 | 25.56° C | 53% | 1009.3 hPa | - | - | - | - |
| 1777466995 | 24.44° C | 57% | 1008.4 hPa | - | - | - | - |
| 1777465195 | 24.44° C | 61% | 1009.4 hPa | - | - | - | - |
| 1777463394 | 23.33° C | 63% | 1009.6 hPa | - | - | - | - |
| 1777461595 | 22.78° C | 65% | 1009.8 hPa | - | - | - | - |
| 1777461595 | 22.78° C | 65% | 1009.8 hPa | - | - | - | - |
| 1777459794 | 22.22° C | 70% | 1009.9 hPa | - | - | - | - |
| 1777457994 | 21.67° C | 72% | 1009.8 hPa | - | - | - | - |
| 1777456194 | 20.56° C | 75% | 1009.8 hPa | - | - | - | - |
| 1777454403 | 20° C | 76% | 1009.5 hPa | - | - | - | - |
| 1777454394 | 20° C | 76% | 1009.5 hPa | - | - | - | - |
| 1777452594 | 19.44° C | 80% | 1009.2 hPa | - | - | - | - |
| 1777450794 | 18.89° C | 82% | 1009 hPa | - | - | - | - |
| 1777450794 | 18.89° C | 82% | 1009 hPa | - | - | - | - |
| 1777448994 | 18.33° C | 82% | 1008.8 hPa | - | - | - | - |
| 1777447202 | 17.78° C | 82% | 1008.5 hPa | - | - | - | - |
| 1777447194 | 17.78° C | 82% | 1008.5 hPa | - | - | - | - |
| 1777445397 | 17.22° C | 82% | 1008.4 hPa | - | - | - | - |
| 1777443597 | 16.67° C | 83% | 1008.2 hPa | - | - | - | - |
| 1777441800 | 16.67° C | 83% | 1007.9 hPa | - | - | - | - |
| 1777441800 | 16.67° C | 83% | 1007.9 hPa | - | - | - | - |
| 1777439996 | 16.67° C | 83% | 1007.9 hPa | - | - | - | - |
| 1777438199 | 17.22° C | 82% | 1008 hPa | - | - | - | - |
| 1777436394 | 17.22° C | 81% | 1008.1 hPa | - | - | - | - |
* Rain since midnight (hover to see other rain measurements)
** Current wind speed in m/s (hover to see current wind gust speed)